Time;durP1;ratioP1;P1;durP2;ratioP2;P2;SDS_P1;SDS_P2;PMS_P1;PMS_P2;Temp;Humidity;BMP_temperature;BMP_pressure;BME280_temperature;BME280_humidity;BME280_pressure;Samples;Min_cycle;Max_cycle;Signal;HPM_P1;HPM_P2
2021/05/22 00:02:08;;;;;;;8.80;2.30;;;;;;;;;;5134410;27;20511;-70
2021/05/22 00:04:36;;;;;;;5.23;2.37;;;;;;;;;;5139885;27;20446;-70
2021/05/22 00:07:04;;;;;;;10.63;2.30;;;;;;;;;;5140960;27;20461;-70
2021/05/22 00:09:35;;;;;;;5.30;2.10;;;;;;;;;;5140290;27;20482;-70
2021/05/22 00:12:02;;;;;;;4.83;2.43;;;;;;;;;;5140142;27;20456;-70
2021/05/22 00:14:29;;;;;;;5.60;2.23;;;;;;;;;;5140057;27;20865;-71
2021/05/22 00:16:57;;;;;;;4.33;2.20;;;;;;;;;;5140465;27;20804;-71
2021/05/22 00:19:24;;;;;;;5.20;2.20;;;;;;;;;;5140061;27;20457;-71
2021/05/22 00:21:51;;;;;;;3.90;2.00;;;;;;;;;;5140186;27;20465;-71
2021/05/22 00:24:19;;;;;;;5.63;1.90;;;;;;;;;;5140421;27;20452;-71
2021/05/22 00:26:46;;;;;;;7.53;2.03;;;;;;;;;;5139721;27;20470;-71
2021/05/22 00:29:13;;;;;;;4.20;1.90;;;;;;;;;;5140147;27;20488;-71
2021/05/22 00:31:40;;;;;;;5.20;2.00;;;;;;;;;;5139770;27;20503;-71
2021/05/22 00:34:07;;;;;;;9.57;2.80;;;;;;;;;;5139991;27;20442;-71
2021/05/22 00:36:35;;;;;;;3.50;1.77;;;;;;;;;;5139667;27;20461;-71
2021/05/22 00:39:02;;;;;;;3.53;1.80;;;;;;;;;;5139544;27;20737;-71
2021/05/22 00:41:30;;;;;;;4.13;1.97;;;;;;;;;;5139750;27;20466;-71
2021/05/22 00:43:57;;;;;;;2.83;1.90;;;;;;;;;;5139948;27;20518;-71
2021/05/22 00:46:24;;;;;;;5.63;2.03;;;;;;;;;;5139271;27;20454;-71
2021/05/22 00:48:51;;;;;;;4.90;2.10;;;;;;;;;;5140324;27;20446;-71
2021/05/22 00:51:18;;;;;;;3.40;1.70;;;;;;;;;;5139777;27;20446;-71
2021/05/22 00:53:45;;;;;;;3.50;1.40;;;;;;;;;;5139587;27;20461;-71
2021/05/22 00:56:13;;;;;;;4.97;2.13;;;;;;;;;;5139528;27;20453;-72
2021/05/22 00:58:40;;;;;;;4.30;1.60;;;;;;;;;;5138667;27;20503;-72
2021/05/22 01:01:07;;;;;;;9.73;2.63;;;;;;;;;;5139003;27;20480;-72
2021/05/22 01:03:36;;;;;;;6.27;1.90;;;;;;;;;;5138334;27;20450;-71
2021/05/22 01:06:09;;;;;;;4.00;1.60;;;;;;;;;;5138861;27;20652;-71
2021/05/22 01:08:38;;;;;;;6.40;2.40;;;;;;;;;;5139061;27;20446;-71
2021/05/22 01:11:07;;;;;;;4.37;1.60;;;;;;;;;;5138873;27;20537;-71
2021/05/22 01:13:36;;;;;;;9.13;1.83;;;;;;;;;;5139892;27;20518;-71
2021/05/22 01:16:04;;;;;;;6.03;2.50;;;;;;;;;;5139403;27;20442;-71
2021/05/22 01:18:32;;;;;;;4.37;1.80;;;;;;;;;;5138484;27;20518;-71
2021/05/22 01:21:00;;;;;;;7.73;2.40;;;;;;;;;;5138565;27;20495;-71
2021/05/22 01:23:29;;;;;;;4.13;1.50;;;;;;;;;;5139212;27;20453;-71
2021/05/22 01:25:58;;;;;;;5.53;1.60;;;;;;;;;;5138262;27;20454;-72
2021/05/22 01:28:25;;;;;;;7.10;2.37;;;;;;;;;;5138744;27;20459;-71
2021/05/22 01:30:52;;;;;;;4.00;1.50;;;;;;;;;;5138538;27;20931;-70
2021/05/22 01:33:20;;;;;;;4.37;1.43;;;;;;;;;;5138267;27;20446;-71
2021/05/22 01:35:49;;;;;;;4.83;1.33;;;;;;;;;;5139012;27;20466;-71
2021/05/22 01:38:16;;;;;;;3.50;1.60;;;;;;;;;;5137226;27;20525;-71
2021/05/22 01:40:43;;;;;;;5.43;2.00;;;;;;;;;;5138707;27;20454;-70
2021/05/22 01:43:12;;;;;;;6.17;1.60;;;;;;;;;;5139198;27;20761;-70
2021/05/22 01:45:41;;;;;;;4.67;1.50;;;;;;;;;;5138063;27;20454;-71
2021/05/22 01:48:17;;;;;;;7.40;2.20;;;;;;;;;;5139081;27;20464;-72
2021/05/22 01:50:47;;;;;;;3.70;1.30;;;;;;;;;;5139076;27;20485;-71
2021/05/22 01:53:16;;;;;;;1.77;1.00;;;;;;;;;;5119427;27;20819;-70
2021/05/22 01:55:45;;;;;;;6.80;1.50;;;;;;;;;;5136274;27;20454;-70
2021/05/22 01:58:13;;;;;;;4.07;1.33;;;;;;;;;;5131712;27;20462;-70
2021/05/22 02:00:44;;;;;;;5.40;1.30;;;;;;;;;;5121749;27;20451;-70
2021/05/22 02:03:13;;;;;;;3.93;1.70;;;;;;;;;;5119601;27;20463;-72
2021/05/22 02:05:40;;;;;;;3.20;1.27;;;;;;;;;;5118523;27;20447;-71
2021/05/22 02:08:09;;;;;;;3.93;1.40;;;;;;;;;;5117441;27;20459;-72
2021/05/22 02:10:36;;;;;;;7.20;1.47;;;;;;;;;;5117676;27;20581;-72
2021/05/22 02:13:04;;;;;;;6.53;1.60;;;;;;;;;;5117836;27;20820;-71
2021/05/22 02:15:32;;;;;;;4.57;1.20;;;;;;;;;;5117229;27;20770;-71
2021/05/22 02:17:59;;;;;;;4.70;1.30;;;;;;;;;;5117656;27;20474;-71
2021/05/22 02:20:27;;;;;;;5.87;1.80;;;;;;;;;;5117504;27;20457;-71
2021/05/22 02:22:55;;;;;;;5.23;1.07;;;;;;;;;;5117260;27;20454;-72
2021/05/22 02:25:22;;;;;;;6.33;1.67;;;;;;;;;;5117653;27;20451;-71
2021/05/22 02:27:50;;;;;;;9.40;1.47;;;;;;;;;;5117552;27;20469;-71
2021/05/22 02:33:39;;;;;;;3.40;1.20;;;;;;;;;;5117627;27;20563;-71
2021/05/22 02:38:37;;;;;;;5.47;1.55;;;;;;;;;;5037361;27;1718499;-71
2021/05/22 02:41:10;;;;;;;5.80;1.30;;;;;;;;;;5101564;28;20535;-73
2021/05/22 02:43:39;;;;;;;3.07;1.00;;;;;;;;;;5096030;28;20470;-71
2021/05/22 02:46:08;;;;;;;2.17;1.00;;;;;;;;;;5097579;28;20563;-71
2021/05/22 02:51:40;;;;;;;5.63;1.90;;;;;;;;;;5098876;28;20434;-71
2021/05/22 02:54:08;;;;;;;4.23;1.87;;;;;;;;;;5114631;28;20785;-71
2021/05/22 02:56:36;;;;;;;3.90;1.50;;;;;;;;;;5121204;28;20511;-71
2021/05/22 02:59:03;;;;;;;2.20;0.90;;;;;;;;;;5120818;28;20474;-71
2021/05/22 03:01:31;;;;;;;3.03;1.30;;;;;;;;;;5120632;28;20467;-71
2021/05/22 03:03:59;;;;;;;2.70;1.03;;;;;;;;;;5120891;28;20563;-70
2021/05/22 03:06:26;;;;;;;3.90;1.20;;;;;;;;;;5120788;28;20435;-70
2021/05/22 03:08:54;;;;;;;5.07;1.30;;;;;;;;;;5121533;28;20447;-70
2021/05/22 03:11:23;;;;;;;5.70;1.10;;;;;;;;;;5120739;28;20501;-71
2021/05/22 03:13:50;;;;;;;5.20;0.93;;;;;;;;;;5121544;28;20459;-70
2021/05/22 03:16:19;;;;;;;3.93;1.33;;;;;;;;;;5120830;28;20889;-71
2021/05/22 03:18:46;;;;;;;5.10;1.90;;;;;;;;;;5120602;28;20500;-71
2021/05/22 03:21:13;;;;;;;5.83;1.27;;;;;;;;;;5103076;28;20922;-71
2021/05/22 03:23:41;;;;;;;4.23;1.03;;;;;;;;;;5099915;28;20451;-70
2021/05/22 03:26:09;;;;;;;3.60;1.70;;;;;;;;;;5100841;28;20875;-70
2021/05/22 03:28:37;;;;;;;2.20;1.20;;;;;;;;;;5100194;28;20513;-70
2021/05/22 03:31:04;;;;;;;4.97;1.37;;;;;;;;;;5099599;28;20552;-71
2021/05/22 03:33:31;;;;;;;2.90;1.07;;;;;;;;;;5100415;28;20451;-71
2021/05/22 03:35:59;;;;;;;3.13;1.07;;;;;;;;;;5100300;28;20535;-71
2021/05/22 03:38:26;;;;;;;2.93;1.17;;;;;;;;;;5100213;28;20554;-70
2021/05/22 03:40:53;;;;;;;2.73;1.30;;;;;;;;;;5100055;28;20455;-70
2021/05/22 03:43:25;;;;;;;3.63;1.00;;;;;;;;;;5100151;28;20551;-71
2021/05/22 03:45:55;;;;;;;3.93;1.23;;;;;;;;;;5082555;28;20790;-71
2021/05/22 03:48:22;;;;;;;2.07;1.27;;;;;;;;;;5100323;28;20448;-70
2021/05/22 03:50:49;;;;;;;3.60;1.23;;;;;;;;;;5099621;28;20491;-70
2021/05/22 03:53:17;;;;;;;3.40;1.03;;;;;;;;;;5099502;28;20722;-70
2021/05/22 03:55:44;;;;;;;2.70;1.00;;;;;;;;;;5099673;28;20519;-70
2021/05/22 03:58:11;;;;;;;4.67;1.20;;;;;;;;;;5099196;28;20440;-70
2021/05/22 04:03:43;;;;;;;5.97;1.30;;;;;;;;;;5099749;28;20427;-71
2021/05/22 04:06:10;;;;;;;6.80;2.00;;;;;;;;;;5098935;28;20449;-71
2021/05/22 04:08:38;;;;;;;2.07;0.90;;;;;;;;;;5103338;28;20475;-71
2021/05/22 04:11:05;;;;;;;3.40;1.93;;;;;;;;;;5119608;28;20482;-71
2021/05/22 04:13:32;;;;;;;4.07;0.90;;;;;;;;;;5119596;28;20463;-71
2021/05/22 04:16:00;;;;;;;2.70;0.90;;;;;;;;;;5119904;28;20447;-71
2021/05/22 04:18:27;;;;;;;4.80;1.20;;;;;;;;;;5119391;28;20463;-71
2021/05/22 04:20:55;;;;;;;4.50;1.73;;;;;;;;;;5119949;28;20853;-71
2021/05/22 04:23:23;;;;;;;8.93;1.20;;;;;;;;;;5119712;28;20516;-72
2021/05/22 04:25:50;;;;;;;2.33;1.10;;;;;;;;;;5119422;28;20480;-71
2021/05/22 04:28:17;;;;;;;2.10;0.70;;;;;;;;;;5119103;28;20443;-71
2021/05/22 04:30:45;;;;;;;3.60;0.80;;;;;;;;;;5119574;28;20491;-71
2021/05/22 04:33:12;;;;;;;2.90;1.10;;;;;;;;;;5119671;28;20481;-71
2021/05/22 04:35:39;;;;;;;2.27;0.80;;;;;;;;;;5119392;28;20484;-71
2021/05/22 04:38:08;;;;;;;4.13;1.30;;;;;;;;;;5116434;28;20878;-72
2021/05/22 04:40:35;;;;;;;3.40;1.37;;;;;;;;;;5099205;28;20460;-71
2021/05/22 04:43:02;;;;;;;3.50;0.90;;;;;;;;;;5101291;28;20455;-71
2021/05/22 04:45:29;;;;;;;3.67;0.97;;;;;;;;;;5119128;28;20455;-71
2021/05/22 04:47:57;;;;;;;2.60;0.80;;;;;;;;;;5119431;28;20542;-71
2021/05/22 04:50:25;;;;;;;5.70;1.20;;;;;;;;;;5118634;28;21197;-71
2021/05/22 04:52:53;;;;;;;3.80;1.03;;;;;;;;;;5098260;28;20724;-71
2021/05/22 04:55:21;;;;;;;2.97;0.80;;;;;;;;;;5098784;28;20451;-71
2021/05/22 04:57:48;;;;;;;3.43;1.00;;;;;;;;;;5098583;28;20455;-71
2021/05/22 05:00:16;;;;;;;2.90;0.90;;;;;;;;;;5098660;28;20459;-71
2021/05/22 05:02:45;;;;;;;2.43;1.17;;;;;;;;;;5118135;28;20455;-71
2021/05/22 05:05:13;;;;;;;3.10;1.23;;;;;;;;;;5119006;28;20520;-71
2021/05/22 05:07:41;;;;;;;3.50;0.90;;;;;;;;;;5118419;28;20443;-71
2021/05/22 05:10:09;;;;;;;5.83;0.90;;;;;;;;;;5118817;28;20494;-71
2021/05/22 05:12:37;;;;;;;2.50;0.90;;;;;;;;;;5118631;28;20451;-71
2021/05/22 05:15:06;;;;;;;1.93;0.70;;;;;;;;;;5118776;28;20460;-71
2021/05/22 05:17:34;;;;;;;2.57;1.10;;;;;;;;;;5118747;28;20447;-71
2021/05/22 05:20:01;;;;;;;2.90;1.20;;;;;;;;;;5118926;28;20451;-71
2021/05/22 05:22:29;;;;;;;2.53;0.70;;;;;;;;;;5118728;28;20450;-71
2021/05/22 05:24:56;;;;;;;3.50;0.93;;;;;;;;;;5118369;28;20469;-71
2021/05/22 05:27:23;;;;;;;3.57;0.90;;;;;;;;;;5117820;28;20447;-71
2021/05/22 05:29:51;;;;;;;2.77;0.97;;;;;;;;;;5118273;28;20497;-71
2021/05/22 05:32:19;;;;;;;8.37;1.20;;;;;;;;;;5118357;28;20578;-71
2021/05/22 05:34:46;;;;;;;2.43;0.70;;;;;;;;;;5119331;28;20458;-71
2021/05/22 05:37:14;;;;;;;2.60;0.80;;;;;;;;;;5099470;28;20603;-71
2021/05/22 05:39:41;;;;;;;2.23;1.00;;;;;;;;;;5098556;28;20461;-72
2021/05/22 05:42:09;;;;;;;5.00;1.20;;;;;;;;;;5098190;28;20448;-73
2021/05/22 05:44:36;;;;;;;2.73;0.80;;;;;;;;;;5097695;28;20467;-72
2021/05/22 05:47:05;;;;;;;5.87;1.10;;;;;;;;;;5114181;28;20451;-71
2021/05/22 05:49:32;;;;;;;1.87;0.97;;;;;;;;;;5118238;28;20551;-71
2021/05/22 05:51:59;;;;;;;3.57;1.30;;;;;;;;;;5118119;28;20447;-71
2021/05/22 05:54:27;;;;;;;2.43;1.30;;;;;;;;;;5104944;28;20909;-71
2021/05/22 05:56:55;;;;;;;4.03;1.10;;;;;;;;;;5096983;28;20908;-71
2021/05/22 05:59:22;;;;;;;5.63;1.00;;;;;;;;;;5097710;28;20513;-71
2021/05/22 06:01:49;;;;;;;4.03;0.93;;;;;;;;;;5101649;28;20451;-72
2021/05/22 06:04:18;;;;;;;6.30;1.03;;;;;;;;;;5117285;28;20466;-72
2021/05/22 06:06:45;;;;;;;2.67;1.07;;;;;;;;;;5118733;28;20873;-71
2021/05/22 06:09:12;;;;;;;1.97;0.60;;;;;;;;;;5117650;28;20729;-71
2021/05/22 06:11:40;;;;;;;5.50;0.80;;;;;;;;;;5118535;28;20446;-71
2021/05/22 06:14:13;;;;;;;3.10;1.03;;;;;;;;;;5117551;28;20484;-71
2021/05/22 06:16:41;;;;;;;1.87;0.70;;;;;;;;;;5117779;28;20497;-71
2021/05/22 06:19:09;;;;;;;4.70;1.20;;;;;;;;;;5118484;28;20527;-70
2021/05/22 06:21:38;;;;;;;2.80;0.80;;;;;;;;;;5117519;28;20739;-71
2021/05/22 06:24:06;;;;;;;1.50;0.83;;;;;;;;;;5117171;28;20458;-71
2021/05/22 06:26:33;;;;;;;4.90;1.57;;;;;;;;;;5115758;28;20450;-71
2021/05/22 06:29:06;;;;;;;2.50;0.73;;;;;;;;;;5096098;28;20451;-71
2021/05/22 06:31:33;;;;;;;3.47;1.13;;;;;;;;;;5097215;28;20451;-71
2021/05/22 06:34:00;;;;;;;2.90;1.00;;;;;;;;;;5096684;28;20459;-71
2021/05/22 06:36:30;;;;;;;12.67;1.20;;;;;;;;;;5097231;28;20440;-70
2021/05/22 06:38:58;;;;;;;2.50;0.60;;;;;;;;;;5097204;28;20455;-71
2021/05/22 06:41:25;;;;;;;4.20;0.80;;;;;;;;;;5096971;28;20702;-71
2021/05/22 06:43:53;;;;;;;3.33;0.80;;;;;;;;;;5097057;28;20455;-71
2021/05/22 06:49:05;;;;;;;1.80;0.80;;;;;;;;;;5096935;28;20513;-71
2021/05/22 06:51:33;;;;;;;3.90;1.43;;;;;;;;;;5096920;28;20510;-71
2021/05/22 06:54:02;;;;;;;2.30;1.10;;;;;;;;;;5096051;28;20455;-71
2021/05/22 06:56:29;;;;;;;4.63;1.00;;;;;;;;;;5105784;28;20859;-71
2021/05/22 06:58:56;;;;;;;3.40;1.30;;;;;;;;;;5116543;28;20524;-71
2021/05/22 07:01:23;;;;;;;1.83;1.10;;;;;;;;;;5116991;28;20440;-71
2021/05/22 07:03:51;;;;;;;4.67;0.90;;;;;;;;;;5117050;28;20870;-71
2021/05/22 07:06:18;;;;;;;2.00;0.70;;;;;;;;;;5116575;28;20450;-71
2021/05/22 07:08:46;;;;;;;3.43;0.90;;;;;;;;;;5117003;28;20479;-71
2021/05/22 07:11:15;;;;;;;2.30;1.40;;;;;;;;;;5115122;28;20494;-70
2021/05/22 07:13:42;;;;;;;1.80;0.67;;;;;;;;;;5116029;28;20454;-70
2021/05/22 07:16:10;;;;;;;1.60;0.80;;;;;;;;;;5113127;28;20471;-71
2021/05/22 07:21:31;;;;;;;4.30;1.37;;;;;;;;;;5093544;28;20836;-70
2021/05/22 07:23:58;;;;;;;6.20;1.10;;;;;;;;;;5096043;28;20889;-70
2021/05/22 07:26:27;;;;;;;2.83;0.90;;;;;;;;;;5096048;28;20470;-70
2021/05/22 07:28:56;;;;;;;3.20;1.10;;;;;;;;;;5109651;28;20462;-71
2021/05/22 07:31:29;;;;;;;5.23;1.00;;;;;;;;;;5105363;28;20511;-71
2021/05/22 07:33:57;;;;;;;4.03;1.10;;;;;;;;;;5099766;28;20479;-71
2021/05/22 07:36:25;;;;;;;10.73;1.40;;;;;;;;;;5107749;28;20949;-70
2021/05/22 07:38:53;;;;;;;2.67;0.97;;;;;;;;;;5109739;28;20470;-71
2021/05/22 07:41:20;;;;;;;2.97;1.07;;;;;;;;;;5115229;28;20535;-70
2021/05/22 07:46:40;;;;;;;1.77;0.90;;;;;;;;;;5120126;28;20971;-70
2021/05/22 07:49:10;;;;;;;2.97;0.70;;;;;;;;;;5120159;28;20469;-70
2021/05/22 07:51:40;;;;;;;3.80;0.80;;;;;;;;;;5119243;28;20481;-70
2021/05/22 07:54:11;;;;;;;1.67;0.80;;;;;;;;;;5119354;28;20531;-70
2021/05/22 07:56:39;;;;;;;3.03;1.03;;;;;;;;;;5118438;28;20718;-71
2021/05/22 07:59:07;;;;;;;3.07;0.60;;;;;;;;;;5113897;28;20451;-70
2021/05/22 08:01:37;;;;;;;3.87;1.20;;;;;;;;;;5119266;28;20454;-71
2021/05/22 08:04:05;;;;;;;5.20;1.30;;;;;;;;;;5119415;28;20477;-70
2021/05/22 08:06:32;;;;;;;3.50;0.60;;;;;;;;;;5119261;28;20480;-70
2021/05/22 08:09:00;;;;;;;4.07;1.10;;;;;;;;;;5119459;28;20463;-70
2021/05/22 08:11:28;;;;;;;5.17;1.00;;;;;;;;;;5118819;28;20501;-70
2021/05/22 08:13:55;;;;;;;3.03;1.00;;;;;;;;;;5118716;28;20451;-71
2021/05/22 08:16:25;;;;;;;1.60;0.80;;;;;;;;;;5117979;28;20911;-72
2021/05/22 08:18:53;;;;;;;1.90;0.77;;;;;;;;;;5115700;28;20467;-71
2021/05/22 08:21:26;;;;;;;3.87;1.30;;;;;;;;;;5118579;28;20583;-70
2021/05/22 08:23:53;;;;;;;3.20;0.73;;;;;;;;;;5118397;28;20498;-70
2021/05/22 08:26:22;;;;;;;2.20;0.70;;;;;;;;;;5118111;28;21079;-70
2021/05/22 08:28:50;;;;;;;3.67;0.90;;;;;;;;;;5118485;28;20561;-70
2021/05/22 08:31:17;;;;;;;2.80;0.90;;;;;;;;;;5118311;28;20577;-70
2021/05/22 08:33:49;;;;;;;2.90;1.00;;;;;;;;;;5106471;28;20475;-70
2021/05/22 08:36:20;;;;;;;3.43;1.00;;;;;;;;;;5107019;28;20444;-71
2021/05/22 08:38:48;;;;;;;2.73;0.87;;;;;;;;;;5113954;28;20463;-69
2021/05/22 08:41:15;;;;;;;2.80;1.10;;;;;;;;;;5106177;28;20508;-71
2021/05/22 08:43:45;;;;;;;4.73;1.07;;;;;;;;;;5105485;28;20456;-71
2021/05/22 08:46:13;;;;;;;3.20;1.00;;;;;;;;;;5098005;28;20447;-70
2021/05/22 08:48:41;;;;;;;3.87;0.80;;;;;;;;;;5110331;28;20450;-71
2021/05/22 08:51:13;;;;;;;2.67;0.90;;;;;;;;;;5106736;28;20578;-72
2021/05/22 08:53:44;;;;;;;2.40;0.90;;;;;;;;;;5100395;28;20467;-72
2021/05/22 08:56:23;;;;;;;3.00;0.80;;;;;;;;;;5107767;28;20541;-72
2021/05/22 08:58:52;;;;;;;1.43;0.73;;;;;;;;;;5113865;28;20477;-71
2021/05/22 09:01:28;;;;;;;3.90;1.07;;;;;;;;;;5100617;28;20448;-72
2021/05/22 09:04:04;;;;;;;2.90;1.27;;;;;;;;;;5097848;28;20481;-72
2021/05/22 09:06:41;;;;;;;3.77;1.00;;;;;;;;;;5101389;28;20857;-72
2021/05/22 09:09:11;;;;;;;2.70;1.37;;;;;;;;;;5099177;28;20719;-71
2021/05/22 09:11:50;;;;;;;3.57;1.27;;;;;;;;;;5097247;28;20515;-71
2021/05/22 09:14:33;;;;;;;3.90;1.40;;;;;;;;;;5095470;28;20551;-72
2021/05/22 09:17:12;;;;;;;2.90;1.10;;;;;;;;;;5096384;28;20519;-72
2021/05/22 09:19:44;;;;;;;8.73;1.20;;;;;;;;;;5103616;28;20547;-71
2021/05/22 09:22:20;;;;;;;2.03;0.63;;;;;;;;;;5105615;28;20501;-72
2021/05/22 09:24:59;;;;;;;2.80;0.80;;;;;;;;;;5096358;28;20903;-72
2021/05/22 09:27:32;;;;;;;2.80;0.70;;;;;;;;;;5095187;28;20452;-71
2021/05/22 09:30:06;;;;;;;1.83;0.77;;;;;;;;;;5096207;28;20552;-70
2021/05/22 09:32:34;;;;;;;1.73;0.80;;;;;;;;;;5096289;28;20828;-72
2021/05/22 09:35:04;;;;;;;4.63;1.10;;;;;;;;;;5095519;28;20467;-71
2021/05/22 09:37:40;;;;;;;3.63;1.20;;;;;;;;;;5097413;28;20467;-71
2021/05/22 09:40:10;;;;;;;3.77;1.60;;;;;;;;;;5096056;28;20443;-72
2021/05/22 09:42:43;;;;;;;7.53;1.10;;;;;;;;;;5097234;28;20855;-72
2021/05/22 09:45:29;;;;;;;2.27;0.83;;;;;;;;;;5096337;28;20721;-70
2021/05/22 09:47:57;;;;;;;5.03;0.97;;;;;;;;;;5102019;28;20508;-72
2021/05/22 09:50:30;;;;;;;3.40;1.70;;;;;;;;;;5115940;28;20500;-70
2021/05/22 09:52:59;;;;;;;5.37;0.90;;;;;;;;;;5115694;28;20494;-70
2021/05/22 09:55:28;;;;;;;2.53;1.67;;;;;;;;;;5104357;28;20517;-70
2021/05/22 09:57:59;;;;;;;2.57;1.10;;;;;;;;;;5095621;28;20752;-71
2021/05/22 10:00:27;;;;;;;1.17;0.50;;;;;;;;;;5114908;28;20459;-70
2021/05/22 10:02:56;;;;;;;5.63;0.90;;;;;;;;;;5116383;28;20554;-70
2021/05/22 10:05:24;;;;;;;2.17;0.77;;;;;;;;;;5113821;28;20459;-71
2021/05/22 10:07:53;;;;;;;4.03;0.83;;;;;;;;;;5112997;28;20450;-71
2021/05/22 10:10:22;;;;;;;2.50;0.80;;;;;;;;;;5113314;28;20479;-72
2021/05/22 10:12:54;;;;;;;2.20;0.80;;;;;;;;;;5098727;28;22202;-71
2021/05/22 10:15:27;;;;;;;2.97;0.97;;;;;;;;;;5105565;28;20449;-71
2021/05/22 10:17:54;;;;;;;2.40;1.00;;;;;;;;;;5101781;28;20482;-71
2021/05/22 10:20:22;;;;;;;4.27;1.00;;;;;;;;;;5111136;28;20561;-72
2021/05/22 10:22:50;;;;;;;2.63;0.90;;;;;;;;;;5112030;28;20922;-71
2021/05/22 10:25:20;;;;;;;2.53;1.10;;;;;;;;;;5102316;28;20446;-71
2021/05/22 10:27:52;;;;;;;5.20;0.80;;;;;;;;;;5095625;28;20451;-72
2021/05/22 10:30:22;;;;;;;4.03;1.17;;;;;;;;;;5097675;28;20486;-72
2021/05/22 10:32:52;;;;;;;2.67;1.37;;;;;;;;;;5107619;28;20451;-71
2021/05/22 10:35:25;;;;;;;2.67;0.80;;;;;;;;;;5096007;28;20444;-71
2021/05/22 10:37:55;;;;;;;2.00;0.60;;;;;;;;;;5109370;28;20494;-70
2021/05/22 10:40:26;;;;;;;1.57;0.83;;;;;;;;;;5096167;28;20448;-72
2021/05/22 10:43:00;;;;;;;3.80;0.83;;;;;;;;;;5098383;28;21067;-72
2021/05/22 10:45:29;;;;;;;2.53;1.00;;;;;;;;;;5113851;28;20454;-70
2021/05/22 10:47:58;;;;;;;2.60;0.80;;;;;;;;;;5101147;28;20505;-71
2021/05/22 10:50:46;;;;;;;1.40;0.60;;;;;;;;;;5096128;28;20483;-70
2021/05/22 10:53:24;;;;;;;2.17;0.70;;;;;;;;;;5105201;28;20455;-71
2021/05/22 10:56:09;;;;;;;1.80;0.83;;;;;;;;;;5115160;28;20732;-72
2021/05/22 10:58:41;;;;;;;3.97;2.03;;;;;;;;;;5098546;28;20459;-74
2021/05/22 11:01:29;;;;;;;2.90;1.00;;;;;;;;;;5109964;28;20448;-71
2021/05/22 11:04:17;;;;;;;4.90;1.07;;;;;;;;;;5104632;28;20517;-72
2021/05/22 11:06:46;;;;;;;2.80;1.00;;;;;;;;;;5095551;28;20629;-72
2021/05/22 11:09:38;;;;;;;3.03;1.70;;;;;;;;;;5095339;28;20838;-73
2021/05/22 11:12:29;;;;;;;5.00;1.57;;;;;;;;;;5098736;28;20553;-72
2021/05/22 11:14:58;;;;;;;2.17;0.77;;;;;;;;;;5108078;28;20458;-72
2021/05/22 11:17:44;;;;;;;4.03;1.10;;;;;;;;;;5108826;28;20463;-72
2021/05/22 11:20:18;;;;;;;4.50;1.60;;;;;;;;;;5110850;28;20449;-72
2021/05/22 11:23:01;;;;;;;2.10;1.10;;;;;;;;;;5101030;28;20461;-72
2021/05/22 11:25:45;;;;;;;2.07;0.70;;;;;;;;;;5118814;28;20463;-72
2021/05/22 11:28:20;;;;;;;2.27;0.90;;;;;;;;;;5112945;28;20520;-72
2021/05/22 11:30:55;;;;;;;6.47;4.00;;;;;;;;;;5116045;28;20489;-73
2021/05/22 11:33:39;;;;;;;1.20;0.60;;;;;;;;;;5111904;28;20456;-72
2021/05/22 11:36:29;;;;;;;2.10;1.20;;;;;;;;;;5113649;28;20446;-72
2021/05/22 11:39:00;;;;;;;3.07;0.90;;;;;;;;;;5104420;28;20451;-73
2021/05/22 11:41:32;;;;;;;2.73;1.27;;;;;;;;;;5114306;28;20450;-72
2021/05/22 11:44:08;;;;;;;2.43;1.00;;;;;;;;;;5112383;28;20452;-73
2021/05/22 11:46:37;;;;;;;5.47;1.77;;;;;;;;;;5098205;28;20538;-72
2021/05/22 11:49:07;;;;;;;4.57;1.33;;;;;;;;;;5111101;28;20455;-72
2021/05/22 11:51:39;;;;;;;3.63;1.23;;;;;;;;;;5105247;28;20491;-74
2021/05/22 11:54:10;;;;;;;4.73;0.90;;;;;;;;;;5110301;28;20835;-72
2021/05/22 11:56:38;;;;;;;3.77;0.90;;;;;;;;;;5118825;28;20466;-73
2021/05/22 11:59:07;;;;;;;5.83;1.10;;;;;;;;;;5118037;28;20546;-72
2021/05/22 12:01:37;;;;;;;4.20;0.73;;;;;;;;;;5113619;28;20817;-72
2021/05/22 12:04:12;;;;;;;4.10;1.00;;;;;;;;;;5108230;28;20868;-72
2021/05/22 12:06:41;;;;;;;2.40;0.80;;;;;;;;;;5106205;28;20459;-72
2021/05/22 12:09:12;;;;;;;7.63;1.63;;;;;;;;;;5105619;28;20458;-72
2021/05/22 12:11:54;;;;;;;6.90;1.50;;;;;;;;;;5104957;28;20505;-72
2021/05/22 12:14:22;;;;;;;4.90;1.33;;;;;;;;;;5107585;28;20614;-72
2021/05/22 12:17:02;;;;;;;4.30;1.13;;;;;;;;;;5104978;28;20954;-72
2021/05/22 12:19:35;;;;;;;5.77;1.00;;;;;;;;;;5118160;28;20945;-72
2021/05/22 12:22:02;;;;;;;5.70;1.07;;;;;;;;;;5098127;28;20443;-72
2021/05/22 12:24:30;;;;;;;4.30;1.00;;;;;;;;;;5112476;28;20486;-72
2021/05/22 12:26:57;;;;;;;5.13;0.90;;;;;;;;;;5106338;28;20513;-72
2021/05/22 12:29:25;;;;;;;2.60;0.77;;;;;;;;;;5097066;28;20550;-72
2021/05/22 12:31:59;;;;;;;4.63;0.90;;;;;;;;;;5096999;28;20550;-72
2021/05/22 12:34:30;;;;;;;5.47;1.20;;;;;;;;;;5098028;28;20460;-72
2021/05/22 12:37:10;;;;;;;4.23;1.10;;;;;;;;;;5098366;28;20471;-72
2021/05/22 12:39:41;;;;;;;3.53;0.90;;;;;;;;;;5098198;28;20855;-73
2021/05/22 12:42:21;;;;;;;6.83;1.50;;;;;;;;;;5115764;28;20439;-73
2021/05/22 12:44:49;;;;;;;4.10;0.80;;;;;;;;;;5097348;28;20451;-72
2021/05/22 12:47:16;;;;;;;6.30;1.70;;;;;;;;;;5112082;28;20447;-72
2021/05/22 12:50:02;;;;;;;3.80;1.17;;;;;;;;;;5103692;28;20897;-72
2021/05/22 12:52:35;;;;;;;3.47;0.63;;;;;;;;;;5104932;28;20459;-72
2021/05/22 12:55:02;;;;;;;4.67;1.03;;;;;;;;;;5102505;28;20455;-71
2021/05/22 12:57:36;;;;;;;5.77;1.90;;;;;;;;;;5097320;28;20734;-72
2021/05/22 13:00:12;;;;;;;9.23;2.63;;;;;;;;;;5097280;28;20452;-70
2021/05/22 13:02:50;;;;;;;5.00;1.20;;;;;;;;;;5095124;28;20561;-71
2021/05/22 13:05:20;;;;;;;3.43;1.00;;;;;;;;;;5096375;28;20839;-72
2021/05/22 13:08:08;;;;;;;3.03;0.93;;;;;;;;;;5097029;28;20469;-72
2021/05/22 13:10:36;;;;;;;2.97;1.00;;;;;;;;;;5096891;28;20575;-72
2021/05/22 13:13:09;;;;;;;4.37;1.43;;;;;;;;;;5100894;28;20950;-72
2021/05/22 13:15:41;;;;;;;2.67;1.10;;;;;;;;;;5109200;28;20866;-71
2021/05/22 13:18:15;;;;;;;3.47;0.87;;;;;;;;;;5105287;28;20554;-72
2021/05/22 13:20:43;;;;;;;3.40;1.17;;;;;;;;;;5105978;28;20532;-71
2021/05/22 13:23:19;;;;;;;2.47;0.90;;;;;;;;;;5101497;28;20452;-72
2021/05/22 13:25:49;;;;;;;2.80;1.07;;;;;;;;;;5108823;28;20457;-71
2021/05/22 13:28:24;;;;;;;4.20;0.80;;;;;;;;;;5102876;28;20447;-71
2021/05/22 13:31:02;;;;;;;3.87;1.00;;;;;;;;;;5103014;28;20891;-71
2021/05/22 13:33:38;;;;;;;5.30;0.80;;;;;;;;;;5106457;28;20803;-71
2021/05/22 13:36:11;;;;;;;5.83;1.43;;;;;;;;;;5100989;28;20462;-71
2021/05/22 13:38:48;;;;;;;5.40;1.10;;;;;;;;;;5106841;28;20735;-71
2021/05/22 13:41:30;;;;;;;4.50;1.20;;;;;;;;;;5103859;28;20450;-71
2021/05/22 13:44:03;;;;;;;3.23;0.80;;;;;;;;;;5105931;28;20459;-72
2021/05/22 13:46:36;;;;;;;4.43;1.00;;;;;;;;;;5100342;28;20451;-71
2021/05/22 13:49:09;;;;;;;4.10;1.20;;;;;;;;;;5106756;28;20530;-71
2021/05/22 13:51:40;;;;;;;4.83;1.00;;;;;;;;;;5095406;28;20507;-71
2021/05/22 13:54:17;;;;;;;4.90;1.27;;;;;;;;;;5101390;28;20450;-70
2021/05/22 13:56:49;;;;;;;4.03;1.20;;;;;;;;;;5103171;28;20467;-70
2021/05/22 13:59:18;;;;;;;3.17;0.80;;;;;;;;;;5103680;28;20475;-72
2021/05/22 14:01:46;;;;;;;3.23;1.03;;;;;;;;;;5100693;28;20452;-71
2021/05/22 14:04:26;;;;;;;2.90;1.50;;;;;;;;;;5097487;28;20467;-72
2021/05/22 14:06:55;;;;;;;7.20;1.10;;;;;;;;;;5100921;28;20502;-73
2021/05/22 14:09:27;;;;;;;2.93;1.03;;;;;;;;;;5113784;28;20874;-72
2021/05/22 14:11:56;;;;;;;2.87;1.20;;;;;;;;;;5095844;28;20479;-71
2021/05/22 14:14:23;;;;;;;3.97;1.03;;;;;;;;;;5101963;28;20596;-72
2021/05/22 14:16:52;;;;;;;3.20;1.10;;;;;;;;;;5101687;28;20781;-72
2021/05/22 14:19:20;;;;;;;5.10;2.03;;;;;;;;;;5098775;28;20855;-72
2021/05/22 14:21:51;;;;;;;4.20;1.23;;;;;;;;;;5096472;28;20520;-72
2021/05/22 14:24:22;;;;;;;6.97;2.40;;;;;;;;;;5101371;28;20823;-71
2021/05/22 14:26:52;;;;;;;4.57;1.53;;;;;;;;;;5100323;28;20463;-72
2021/05/22 14:29:20;;;;;;;4.73;1.13;;;;;;;;;;5096623;28;20436;-71
2021/05/22 14:31:48;;;;;;;5.00;1.30;;;;;;;;;;5108132;28;20483;-71
2021/05/22 14:34:17;;;;;;;6.00;1.53;;;;;;;;;;5111627;28;20490;-71
2021/05/22 14:36:45;;;;;;;3.43;1.00;;;;;;;;;;5104332;28;20932;-71
2021/05/22 14:39:16;;;;;;;2.60;0.80;;;;;;;;;;5113498;28;20499;-71
2021/05/22 14:41:48;;;;;;;3.00;1.07;;;;;;;;;;5114630;28;20458;-71
2021/05/22 14:44:19;;;;;;;3.30;1.23;;;;;;;;;;5112559;28;20507;-70
2021/05/22 14:50:10;;;;;;;3.87;1.77;;;;;;;;;;5122244;28;20543;-71
2021/05/22 14:52:48;;;;;;;3.30;1.40;;;;;;;;;;5101312;28;20482;-71
2021/05/22 14:55:23;;;;;;;3.00;1.10;;;;;;;;;;5100663;28;20447;-71
2021/05/22 14:57:52;;;;;;;3.80;1.67;;;;;;;;;;5100644;28;20524;-71
2021/05/22 15:00:24;;;;;;;4.53;1.60;;;;;;;;;;5104279;28;20781;-71
2021/05/22 15:03:01;;;;;;;3.67;1.30;;;;;;;;;;5100811;28;20534;-71
2021/05/22 15:05:47;;;;;;;3.03;1.40;;;;;;;;;;5100346;28;20475;-70
2021/05/22 15:08:20;;;;;;;2.40;1.50;;;;;;;;;;5100875;28;20511;-71
2021/05/22 15:10:53;;;;;;;2.83;1.33;;;;;;;;;;5100346;28;20560;-70
2021/05/22 15:13:23;;;;;;;3.33;1.30;;;;;;;;;;5101515;28;20459;-71
2021/05/22 15:16:07;;;;;;;2.87;1.67;;;;;;;;;;5100984;28;20874;-70
2021/05/22 15:18:35;;;;;;;5.40;1.40;;;;;;;;;;5099562;28;20451;-70
2021/05/22 15:21:05;;;;;;;2.73;1.40;;;;;;;;;;5100059;28;20529;-70
2021/05/22 15:23:35;;;;;;;2.40;1.20;;;;;;;;;;5101371;28;20460;-69
2021/05/22 15:26:25;;;;;;;2.40;1.60;;;;;;;;;;5100863;28;20464;-71